Time;durP1;ratioP1;P1;durP2;ratioP2;P2;SDS_P1;SDS_P2;PMS_P1;PMS_P2;Temp;Humidity;BMP_temperature;BMP_pressure;BME280_temperature;BME280_humidity;BME280_pressure;Samples;Min_cycle;Max_cycle;Signal;HPM_P1;HPM_P2
2022/06/06 00:02:24;;;;;;;0.40;0.40;;;;;;;10.93;76.90;99162.09;4793173;29;20061;-87
2022/06/06 00:04:51;;;;;;;0.40;0.40;;;;;;;10.90;76.99;99162.59;4789568;29;20107;-87
2022/06/06 00:07:18;;;;;;;0.50;0.50;;;;;;;10.76;77.32;99146.69;4789461;29;20059;-86
2022/06/06 00:09:46;;;;;;;0.50;0.50;;;;;;;10.79;77.35;99157.00;4789130;29;20066;-88
2022/06/06 00:12:14;;;;;;;0.40;0.40;;;;;;;10.75;77.28;99150.44;4788060;29;20079;-88
2022/06/06 00:14:44;;;;;;;0.50;0.50;;;;;;;10.72;77.53;99155.50;4788795;29;20054;-88
2022/06/06 00:17:12;;;;;;;0.45;0.45;;;;;;;10.64;77.80;99140.53;4790402;29;20098;-88
2022/06/06 00:19:40;;;;;;;0.40;0.40;;;;;;;10.63;77.95;99138.88;4774935;30;20059;-86
2022/06/06 00:22:07;;;;;;;0.50;0.50;;;;;;;10.63;77.97;99149.66;4789172;29;20055;-86
2022/06/06 00:24:35;;;;;;;0.50;0.50;;;;;;;10.63;78.16;99152.38;4788124;29;20150;-86
2022/06/06 00:27:04;;;;;;;0.40;0.40;;;;;;;10.56;78.19;99139.03;4786919;29;20057;-85
2022/06/06 00:29:35;;;;;;;0.40;0.40;;;;;;;10.65;78.84;99155.66;4789926;29;20491;-86
2022/06/06 00:34:54;;;;;;;0.50;0.50;;;;;;;10.62;78.80;99148.03;4787254;30;20055;-86
2022/06/06 00:37:29;;;;;;;0.40;0.40;;;;;;;10.57;79.03;99156.03;4801392;29;20062;-88
2022/06/06 00:39:58;;;;;;;0.40;0.40;;;;;;;10.55;79.42;99160.84;4812792;29;20145;-88
2022/06/06 00:42:32;;;;;;;0.50;0.50;;;;;;;10.52;79.49;99156.75;4815418;29;20055;-86
2022/06/06 00:45:21;;;;;;;0.50;0.50;;;;;;;10.57;79.60;99164.94;4813569;29;20050;-86
2022/06/06 00:48:08;;;;;;;0.50;0.50;;;;;;;10.61;79.42;99162.59;4794173;29;20066;-84
2022/06/06 00:50:53;;;;;;;0.40;0.40;;;;;;;10.53;79.50;99168.34;4809646;29;20062;-82
2022/06/06 00:53:40;;;;;;;0.40;0.40;;;;;;;10.51;79.86;99163.22;4793676;29;20141;-84
2022/06/06 00:56:18;;;;;;;0.50;0.50;;;;;;;10.47;80.00;99161.25;4810100;29;20340;-85
2022/06/06 00:58:50;;;;;;;0.40;0.40;;;;;;;10.43;80.25;99170.84;4809215;29;20055;-85
2022/06/06 01:01:22;;;;;;;0.40;0.40;;;;;;;10.46;80.42;99164.97;4794515;29;20051;-87
2022/06/06 01:03:55;;;;;;;0.40;0.40;;;;;;;10.42;80.39;99156.56;4807982;29;20054;-88
2022/06/06 01:06:24;;;;;;;0.40;0.40;;;;;;;10.49;80.68;99151.84;4807640;29;20059;-86
2022/06/06 01:08:53;;;;;;;0.45;0.45;;;;;;;10.48;80.46;99150.22;4793322;29;20101;-88
2022/06/06 01:11:21;;;;;;;0.50;0.50;;;;;;;10.54;80.40;99159.22;4793470;29;20073;-87
2022/06/06 01:13:49;;;;;;;0.40;0.40;;;;;;;10.55;80.04;99155.44;4809173;29;20055;-85
2022/06/06 01:16:57;;;;;;;0.50;0.50;;;;;;;10.49;80.52;99153.72;4794751;29;20051;-85
2022/06/06 01:19:32;;;;;;;0.40;0.40;;;;;;;10.43;80.50;99162.75;4796028;29;20082;-86
2022/06/06 01:22:18;;;;;;;;;;;;;;;10.39;80.57;99151.66;4810265;29;20082;-86
2022/06/06 01:25:14;;;;;;;0.50;0.50;;;;;;;10.50;80.36;99158.06;4809057;29;20030;-86
2022/06/06 01:27:51;;;;;;;0.40;0.40;;;;;;;10.52;80.01;99156.75;4809713;29;20063;-84
2022/06/06 01:30:29;;;;;;;0.47;0.47;;;;;;;10.55;80.15;99155.44;4808904;29;20115;-85
2022/06/06 01:33:09;;;;;;;0.50;0.50;;;;;;;10.51;80.20;99165.91;4793266;29;20047;-85
2022/06/06 01:35:44;;;;;;;0.45;0.45;;;;;;;10.48;80.38;99162.88;4807707;29;20434;-88
2022/06/06 01:38:15;;;;;;;0.50;0.50;;;;;;;10.49;80.38;99173.44;4793317;29;20084;-86
2022/06/06 01:41:09;;;;;;;0.40;0.40;;;;;;;10.46;80.64;99163.13;4807408;29;20051;-86
2022/06/06 01:43:50;;;;;;;0.47;0.47;;;;;;;10.47;80.74;99163.94;4793161;29;20144;-87
2022/06/06 01:46:29;;;;;;;0.50;0.50;;;;;;;10.44;80.84;99164.44;4793463;29;20465;-86
2022/06/06 01:49:00;;;;;;;0.47;0.47;;;;;;;10.48;80.52;99162.88;4808033;29;20139;-86
2022/06/06 01:51:31;;;;;;;0.50;0.50;;;;;;;10.60;80.10;99164.47;4793186;29;20065;-85
2022/06/06 01:54:02;;;;;;;0.50;0.50;;;;;;;10.61;79.94;99160.72;4793558;29;20144;-84
2022/06/06 01:56:38;;;;;;;0.40;0.40;;;;;;;10.61;80.03;99158.03;4808666;29;20051;-87
2022/06/06 01:59:17;;;;;;;0.50;0.50;;;;;;;10.61;80.21;99159.91;4809144;29;20047;-87
2022/06/06 02:01:46;;;;;;;0.40;0.40;;;;;;;10.62;80.16;99166.94;4781000;29;20146;-86
2022/06/06 02:04:18;;;;;;;0.50;0.50;;;;;;;10.65;79.99;99158.34;4816558;29;20055;-87
2022/06/06 02:06:45;;;;;;;0.50;0.50;;;;;;;10.71;79.79;99161.94;4812810;29;20046;-86
2022/06/06 02:09:12;;;;;;;0.40;0.40;;;;;;;10.70;80.08;99163.84;4813539;29;20067;-87
2022/06/06 02:11:40;;;;;;;0.40;0.40;;;;;;;10.74;79.73;99165.00;4816233;29;20050;-86
2022/06/06 02:14:08;;;;;;;0.40;0.40;;;;;;;10.75;79.89;99158.53;4816862;29;20465;-86
2022/06/06 02:16:36;;;;;;;0.40;0.40;;;;;;;10.76;79.80;99162.03;4816765;29;20446;-87
2022/06/06 02:19:23;;;;;;;0.40;0.40;;;;;;;10.75;79.68;99149.63;4816620;29;20472;-84
2022/06/06 02:21:50;;;;;;;0.50;0.50;;;;;;;10.87;79.54;99157.69;4816199;29;20047;-86
2022/06/06 02:24:18;;;;;;;0.40;0.40;;;;;;;10.88;79.18;99159.31;4815916;29;20059;-87
2022/06/06 02:26:45;;;;;;;0.50;0.50;;;;;;;10.92;78.90;99155.06;4806004;29;20062;-87
2022/06/06 02:29:12;;;;;;;0.50;0.50;;;;;;;10.97;78.83;99160.56;4789767;29;20062;-86
2022/06/06 02:31:39;;;;;;;0.40;0.40;;;;;;;10.98;78.95;99165.69;4806732;29;20131;-85
2022/06/06 02:34:07;;;;;;;0.43;0.43;;;;;;;11.03;78.74;99163.09;4804530;29;20057;-87
2022/06/06 02:36:35;;;;;;;0.50;0.50;;;;;;;11.06;78.71;99165.31;4808420;29;20058;-86
2022/06/06 02:39:03;;;;;;;0.40;0.40;;;;;;;11.08;78.43;99167.75;4805847;29;20108;-86
2022/06/06 02:41:30;;;;;;;0.40;0.40;;;;;;;11.14;78.15;99174.06;4803580;29;20137;-87
2022/06/06 02:43:58;;;;;;;0.40;0.40;;;;;;;11.17;78.20;99174.41;4804853;29;20055;-86
2022/06/06 02:46:25;;;;;;;0.40;0.40;;;;;;;11.20;78.12;99170.41;4805724;29;20138;-86
2022/06/06 02:48:53;;;;;;;0.40;0.40;;;;;;;11.25;78.05;99165.91;4803089;29;20065;-86
2022/06/06 02:51:20;;;;;;;0.40;0.40;;;;;;;11.28;77.66;99170.00;4805673;29;20468;-86
2022/06/06 02:53:49;;;;;;;0.40;0.40;;;;;;;11.36;77.67;99166.88;4788236;29;20062;-86
2022/06/06 02:56:16;;;;;;;0.40;0.40;;;;;;;11.37;77.57;99159.59;4788772;29;20059;-86
2022/06/06 02:58:43;;;;;;;0.40;0.40;;;;;;;11.45;77.11;99170.00;4803540;29;20535;-86
2022/06/06 03:01:11;;;;;;;0.40;0.40;;;;;;;11.51;76.93;99179.81;4804787;29;20067;-86
2022/06/06 03:03:40;;;;;;;0.40;0.40;;;;;;;11.56;76.79;99177.19;4803480;29;20065;-86
2022/06/06 03:06:55;;;;;;;0.40;0.40;;;;;;;11.63;76.50;99171.63;4804130;29;20051;-86
2022/06/06 03:09:45;;;;;;;0.43;0.43;;;;;;;11.71;76.60;99172.00;4793661;29;20093;-86
2022/06/06 03:12:15;;;;;;;0.50;0.50;;;;;;;11.80;76.07;99182.41;4787632;29;20136;-87
2022/06/06 03:15:00;;;;;;;0.40;0.40;;;;;;;11.87;75.85;99180.38;4787304;29;20061;-88
2022/06/06 03:20:47;;;;;;;0.50;0.50;;;;;;;12.03;75.16;99193.06;4801863;29;20431;-87
2022/06/06 03:23:51;;;;;;;0.40;0.40;;;;;;;12.10;74.75;99188.31;4787420;29;20153;-87
2022/06/06 03:26:27;;;;;;;0.50;0.50;;;;;;;12.16;74.76;99191.06;4802088;29;20055;-86
2022/06/06 03:29:17;;;;;;;0.50;0.50;;;;;;;12.24;74.35;99186.03;4802712;29;20062;-85
2022/06/06 03:31:50;;;;;;;0.43;0.43;;;;;;;12.34;74.01;99188.06;4805454;29;20059;-87
2022/06/06 03:34:48;;;;;;;0.40;0.40;;;;;;;12.41;74.24;99188.69;4805653;29;20051;-87
2022/06/06 03:37:47;;;;;;;0.50;0.50;;;;;;;12.50;73.45;99187.16;4805674;29;20112;-87
2022/06/06 03:40:17;;;;;;;0.40;0.40;;;;;;;12.58;73.01;99192.16;4789969;29;20073;-88
2022/06/06 03:43:02;;;;;;;0.40;0.40;;;;;;;12.67;72.76;99191.69;4790286;29;20055;-86
2022/06/06 03:45:42;;;;;;;0.43;0.43;;;;;;;12.76;72.64;99191.00;4805568;29;20055;-87
2022/06/06 03:48:14;;;;;;;0.43;0.43;;;;;;;12.90;72.48;99201.44;4775831;29;20465;-88
2022/06/06 03:50:51;;;;;;;0.40;0.40;;;;;;;13.01;71.95;99198.56;4792255;29;20059;-87
2022/06/06 03:53:37;;;;;;;0.40;0.40;;;;;;;13.02;71.59;99196.69;4790037;29;20070;-88
2022/06/06 03:56:40;;;;;;;0.40;0.40;;;;;;;13.14;71.30;99201.91;4787687;30;20047;-86
2022/06/06 03:59:08;;;;;;;0.40;0.40;;;;;;;13.12;71.24;99201.38;4788613;29;20083;-86
2022/06/06 04:01:40;;;;;;;0.40;0.40;;;;;;;13.20;70.92;99200.91;4789061;29;20108;-85
2022/06/06 04:04:11;;;;;;;0.40;0.40;;;;;;;13.29;71.27;99195.84;4453590;29;10001063;-87
2022/06/06 04:06:40;;;;;;;0.40;0.40;;;;;;;13.42;70.73;99187.31;4752654;30;20068;-85
2022/06/06 04:09:07;;;;;;;0.40;0.40;;;;;;;13.47;70.03;99194.66;4775911;29;20088;-85
2022/06/06 04:12:02;;;;;;;0.40;0.40;;;;;;;13.45;69.95;99189.50;4785246;29;20051;-84
2022/06/06 04:14:32;;;;;;;0.30;0.30;;;;;;;13.46;69.92;99177.56;4771141;30;20059;-89
2022/06/06 04:17:07;;;;;;;0.50;0.50;;;;;;;13.59;69.70;99185.25;4784210;29;20146;-89
2022/06/06 04:20:04;;;;;;;0.40;0.40;;;;;;;13.77;69.15;99188.66;4788671;29;20142;-92
2022/06/06 04:23:04;;;;;;;0.40;0.40;;;;;;;13.92;68.52;99186.03;4774997;30;20405;-86
2022/06/06 04:25:44;;;;;;;0.40;0.40;;;;;;;14.05;68.16;99184.75;4774869;30;20063;-87
2022/06/06 04:28:44;;;;;;;0.40;0.40;;;;;;;14.30;68.07;99192.22;4800849;29;20055;-87
2022/06/06 04:31:48;;;;;;;0.40;0.40;;;;;;;14.42;67.76;99197.44;4796821;30;20055;-88
2022/06/06 04:34:27;;;;;;;0.40;0.40;;;;;;;14.50;66.90;99196.91;4799411;29;20062;-89
2022/06/06 04:37:09;;;;;;;0.40;0.40;;;;;;;14.58;66.20;99198.34;4790255;30;20051;-88
2022/06/06 04:40:15;;;;;;;0.40;0.40;;;;;;;14.64;66.98;99208.97;4780582;30;20060;-89
2022/06/06 04:42:53;;;;;;;0.40;0.40;;;;;;;14.75;65.77;99217.97;4781393;30;20059;-89
2022/06/06 04:45:47;;;;;;;0.40;0.40;;;;;;;14.86;65.27;99216.91;4782887;29;20188;-88
2022/06/06 04:48:14;;;;;;;0.40;0.40;;;;;;;14.86;65.08;99216.91;4781217;30;20059;-89
2022/06/06 04:50:43;;;;;;;0.40;0.40;;;;;;;14.98;65.79;99219.38;4777941;30;20082;-88
2022/06/06 04:53:18;;;;;;;0.40;0.40;;;;;;;15.11;65.09;99224.28;4783937;30;20055;-88
2022/06/06 04:55:47;;;;;;;0.30;0.30;;;;;;;14.96;63.47;99226.97;4774341;30;20055;-88
2022/06/06 04:58:18;;;;;;;0.40;0.40;;;;;;;15.06;64.03;99228.91;4767804;30;20746;-88
2022/06/06 05:00:46;;;;;;;0.40;0.40;;;;;;;15.17;63.32;99227.88;4783612;29;20054;-86
2022/06/06 05:03:16;;;;;;;0.40;0.40;;;;;;;15.11;63.11;99226.19;4783588;30;20067;-88
2022/06/06 05:06:04;;;;;;;0.40;0.40;;;;;;;15.10;62.59;99230.81;4784947;30;20152;-87
2022/06/06 05:08:56;;;;;;;0.40;0.40;;;;;;;15.13;63.01;99235.72;4783535;30;20484;-87
2022/06/06 05:11:50;;;;;;;0.40;0.40;;;;;;;15.37;62.79;99240.66;4774990;30;20067;-89
2022/06/06 05:14:26;;;;;;;0.40;0.40;;;;;;;15.57;62.39;99239.84;4769979;30;20056;-86
2022/06/06 05:17:08;;;;;;;0.40;0.40;;;;;;;15.65;60.58;99252.94;4770253;30;20525;-88
2022/06/06 05:19:35;;;;;;;0.40;0.40;;;;;;;15.52;60.94;99243.41;4778959;30;20594;-87
2022/06/06 05:22:20;;;;;;;0.40;0.40;;;;;;;15.70;61.15;99244.78;4786741;29;20093;-88
2022/06/06 05:25:25;;;;;;;0.40;0.40;;;;;;;15.93;60.46;99248.88;4785461;30;20152;-85
2022/06/06 05:28:31;;;;;;;0.40;0.40;;;;;;;15.94;59.26;99247.75;4780990;30;20085;-87
2022/06/06 05:31:20;;;;;;;0.40;0.40;;;;;;;15.99;59.48;99250.47;4769715;30;20146;-86
2022/06/06 05:34:00;;;;;;;0.30;0.30;;;;;;;15.94;59.02;99255.94;4782461;29;20097;-87
2022/06/06 05:36:48;;;;;;;0.40;0.40;;;;;;;15.93;60.42;99237.97;4788455;29;20059;-91
2022/06/06 05:39:31;;;;;;;0.30;0.30;;;;;;;16.29;59.10;99245.25;4779092;30;20051;-89
2022/06/06 05:42:07;;;;;;;0.40;0.40;;;;;;;16.17;58.23;99234.66;4785714;30;20086;-91
2022/06/06 05:44:49;;;;;;;0.38;0.38;;;;;;;16.03;59.39;99251.56;4742786;30;20109;-88
2022/06/06 05:47:26;;;;;;;0.32;0.32;;;;;;;16.18;58.71;99253.47;4742305;30;20186;-86
2022/06/06 05:50:15;;;;;;;0.40;0.40;;;;;;;16.15;58.66;99253.19;4777612;29;20069;-85
2022/06/06 05:53:23;;;;;;;0.35;0.35;;;;;;;16.21;58.17;99254.81;4785637;30;20431;-86
2022/06/06 05:56:25;;;;;;;0.40;0.40;;;;;;;16.43;57.97;99255.31;4784498;30;20114;-87
2022/06/06 05:59:03;;;;;;;0.40;0.40;;;;;;;16.54;57.62;99266.19;4779469;30;20086;-86
2022/06/06 06:01:52;;;;;;;0.40;0.40;;;;;;;16.63;57.85;99251.66;4791143;29;20063;-86
2022/06/06 06:04:43;;;;;;;0.40;0.40;;;;;;;16.77;56.47;99257.34;4814671;29;20114;-87
2022/06/06 06:07:19;;;;;;;0.30;0.30;;;;;;;16.75;56.04;99261.47;4800003;29;20084;-88
2022/06/06 06:10:13;;;;;;;0.40;0.40;;;;;;;17.08;57.15;99259.97;4795624;29;20090;-86
2022/06/06 06:13:09;;;;;;;0.40;0.40;;;;;;;17.21;55.22;99255.81;4770581;29;20100;-88
2022/06/06 06:15:39;;;;;;;0.40;0.40;;;;;;;17.02;55.12;99248.28;4809155;29;20168;-88
2022/06/06 06:18:24;;;;;;;0.40;0.40;;;;;;;17.01;55.41;99256.72;4810975;29;20047;-88
2022/06/06 06:20:58;;;;;;;0.30;0.30;;;;;;;17.33;56.61;99254.34;4803007;30;20177;-87
2022/06/06 06:23:30;;;;;;;0.30;0.30;;;;;;;17.55;54.37;99251.22;4783171;30;20608;-88
2022/06/06 06:25:57;;;;;;;0.40;0.40;;;;;;;17.50;54.24;99250.44;4788366;29;20304;-85
2022/06/06 06:28:26;;;;;;;0.38;0.38;;;;;;;17.54;53.67;99249.56;4774511;30;20059;-84
2022/06/06 06:31:17;;;;;;;0.40;0.40;;;;;;;17.47;54.62;99248.25;4743649;30;20052;-86
2022/06/06 06:34:01;;;;;;;0.40;0.40;;;;;;;17.68;52.86;99247.00;4747370;30;20827;-87
2022/06/06 06:37:05;;;;;;;0.40;0.40;;;;;;;17.80;53.16;99243.13;4758766;30;20060;-87
2022/06/06 06:39:35;;;;;;;0.40;0.40;;;;;;;17.75;52.66;99236.59;4745301;30;20052;-85
2022/06/06 06:42:29;;;;;;;0.40;0.40;;;;;;;18.05;54.04;99237.41;4762876;30;20113;-86
2022/06/06 06:45:18;;;;;;;0.40;0.40;;;;;;;18.48;51.95;99237.50;4753938;30;20239;-84
2022/06/06 06:47:57;;;;;;;0.40;0.40;;;;;;;18.34;51.10;99242.88;4749803;30;20161;-87
2022/06/06 06:50:45;;;;;;;0.38;0.38;;;;;;;18.34;50.89;99231.13;4752075;30;20894;-88
2022/06/06 06:53:34;;;;;;;0.40;0.40;;;;;;;18.35;50.77;99239.00;4768240;30;20080;-87
2022/06/06 06:56:41;;;;;;;0.30;0.30;;;;;;;18.18;51.16;99239.50;4772380;30;20472;-86
2022/06/06 06:59:47;;;;;;;0.35;0.35;;;;;;;18.35;50.56;99238.22;4762832;30;20060;-86
2022/06/06 07:09:10;;;;;;;0.30;0.30;;;;;;;18.87;48.60;99239.25;4735172;30;20060;-84
2022/06/06 07:11:46;;;;;;;0.40;0.40;;;;;;;18.78;48.93;99250.03;4744498;30;20594;-83
2022/06/06 07:14:19;;;;;;;0.40;0.40;;;;;;;18.69;48.56;99231.81;4744010;30;20167;-85
2022/06/06 07:16:51;;;;;;;0.30;0.30;;;;;;;18.39;49.11;99234.63;4738870;30;20060;-85
2022/06/06 07:19:24;;;;;;;0.40;0.40;;;;;;;18.35;49.25;99239.00;4726981;30;20547;-85
2022/06/06 07:21:52;;;;;;;0.40;0.40;;;;;;;18.81;49.43;99235.78;4731343;30;20063;-85
2022/06/06 07:24:23;;;;;;;0.40;0.40;;;;;;;19.17;47.81;99237.22;4746801;30;20603;-86
2022/06/06 07:26:51;;;;;;;0.40;0.40;;;;;;;19.76;46.39;99237.72;4731894;30;20746;-88
2022/06/06 07:29:21;;;;;;;0.40;0.40;;;;;;;19.87;45.03;99239.16;4728977;30;20286;-85
2022/06/06 07:31:58;;;;;;;0.30;0.30;;;;;;;19.56;45.60;99236.09;4746178;30;20056;-86
2022/06/06 07:34:43;;;;;;;0.40;0.40;;;;;;;19.49;46.37;99239.19;4742355;30;20529;-87
2022/06/06 07:37:25;;;;;;;0.30;0.30;;;;;;;19.29;47.07;99240.31;4742344;30;20077;-83
2022/06/06 07:39:59;;;;;;;0.30;0.30;;;;;;;19.20;47.23;99245.66;4732965;30;20106;-84
2022/06/06 07:42:48;;;;;;;0.30;0.30;;;;;;;18.78;47.46;99238.28;4740312;30;20060;-87
2022/06/06 07:45:41;;;;;;;0.40;0.40;;;;;;;18.98;47.14;99234.47;4749806;30;20055;-85
2022/06/06 07:48:27;;;;;;;0.43;0.43;;;;;;;19.34;46.58;99231.22;4763907;30;20508;-89
2022/06/06 07:51:01;;;;;;;0.50;0.50;;;;;;;19.84;45.64;99223.31;4769173;30;20081;-86
2022/06/06 07:53:42;;;;;;;0.30;0.30;;;;;;;19.88;46.69;99229.84;4755471;30;20292;-86
2022/06/06 07:56:09;;;;;;;0.50;0.50;;;;;;;20.17;44.19;99221.34;4759561;30;20074;-86
2022/06/06 07:58:55;;;;;;;0.50;0.50;;;;;;;20.33;43.38;99230.09;4766837;30;20142;-85
2022/06/06 08:01:33;;;;;;;0.50;0.50;;;;;;;20.73;44.19;99217.53;4756842;30;20080;-85
2022/06/06 08:04:42;;;;;;;0.40;0.40;;;;;;;21.01;41.35;99212.00;4770310;30;20155;-85
2022/06/06 08:07:28;;;;;;;0.30;0.30;;;;;;;20.48;42.60;99226.25;4788745;30;20142;-85
2022/06/06 08:10:01;;;;;;;0.22;0.22;;;;;;;20.06;43.85;99214.44;4786358;30;20067;-87
2022/06/06 08:13:04;;;;;;;0.30;0.30;;;;;;;20.37;43.30;99214.69;4787296;29;20055;-85
2022/06/06 08:15:31;;;;;;;0.30;0.30;;;;;;;19.95;43.83;99218.47;4717660;30;20152;-86
2022/06/06 08:17:58;;;;;;;0.30;0.30;;;;;;;19.88;44.75;99214.22;4717331;30;20069;-87
2022/06/06 08:20:52;;;;;;;0.50;0.50;;;;;;;20.42;43.84;99208.28;4716649;30;20053;-88
2022/06/06 08:23:20;;;;;;;0.30;0.30;;;;;;;20.59;43.92;99200.28;4681715;30;20132;-87
2022/06/06 08:25:48;;;;;;;0.50;0.50;;;;;;;20.58;44.11;99206.88;4681470;30;20107;-87
2022/06/06 08:28:16;;;;;;;0.50;0.50;;;;;;;21.04;42.49;99210.56;4681540;30;20080;-87
2022/06/06 08:30:46;;;;;;;0.50;0.50;;;;;;;21.54;41.65;99202.28;4681339;30;20169;-87
2022/06/06 08:33:13;;;;;;;0.50;0.50;;;;;;;21.81;39.99;99184.84;4681060;30;20128;-86
2022/06/06 08:35:59;;;;;;;0.70;0.70;;;;;;;22.49;39.55;99205.56;4680758;30;20058;-87
2022/06/06 08:38:47;;;;;;;0.50;0.50;;;;;;;23.47;38.57;99183.34;4681191;30;20054;-86
2022/06/06 08:41:45;;;;;;;0.50;0.50;;;;;;;23.18;36.40;99198.59;4656702;30;20563;-87
2022/06/06 08:44:26;;;;;;;0.50;0.50;;;;;;;23.08;37.72;99194.19;4674488;30;20073;-86
2022/06/06 08:47:14;;;;;;;0.50;0.50;;;;;;;23.50;36.19;99200.03;4665414;30;20706;-86
2022/06/06 08:53:46;;;;;;;0.50;0.50;;;;;;;22.87;36.99;99183.00;4732461;30;20133;-87
2022/06/06 08:56:16;;;;;;;0.50;0.50;;;;;;;22.88;36.74;99181.84;4732485;30;20071;-86
2022/06/06 08:59:04;;;;;;;0.50;0.50;;;;;;;22.89;37.08;99185.44;4732797;30;20478;-86
2022/06/06 09:01:47;;;;;;;0.50;0.50;;;;;;;23.61;35.55;99181.22;4781390;30;20105;-86
2022/06/06 09:04:59;;;;;;;0.60;0.60;;;;;;;24.23;33.94;99175.22;4771095;30;20055;-86
2022/06/06 09:08:07;;;;;;;0.50;0.50;;;;;;;24.99;33.42;99173.50;4786027;30;20118;-86
2022/06/06 09:10:46;;;;;;;0.50;0.50;;;;;;;24.84;31.49;99176.88;4769196;29;20059;-85
2022/06/06 09:13:56;;;;;;;0.30;0.30;;;;;;;24.63;32.34;99172.09;4785451;30;20100;-85
2022/06/06 09:16:42;;;;;;;0.50;0.50;;;;;;;25.14;32.35;99179.56;4785907;30;20059;-86
2022/06/06 09:19:31;;;;;;;0.30;0.30;;;;;;;23.88;33.17;99180.06;4785671;30;20065;-87
2022/06/06 09:22:25;;;;;;;0.20;0.20;;;;;;;22.62;35.71;99184.56;4785398;30;20059;-86
2022/06/06 09:25:12;;;;;;;0.30;0.30;;;;;;;22.12;36.87;99189.53;4764143;30;20512;-83
2022/06/06 09:28:09;;;;;;;0.60;0.60;;;;;;;22.90;36.55;99182.34;4431890;29;9999607;-84
2022/06/06 09:30:54;;;;;;;0.30;0.30;;;;;;;23.23;35.37;99179.16;4763644;30;20094;-85
2022/06/06 09:34:03;;;;;;;0.30;0.30;;;;;;;23.96;34.58;99184.72;4748841;30;20428;-89
2022/06/06 09:36:46;;;;;;;0.20;0.20;;;;;;;23.31;35.21;99197.59;4765786;30;20086;-86
2022/06/06 09:39:34;;;;;;;0.60;0.60;;;;;;;23.61;33.97;99189.47;4756022;30;20208;-85
2022/06/06 09:42:26;;;;;;;0.30;0.30;;;;;;;23.94;33.06;99192.50;4749300;30;20083;-85
2022/06/06 09:45:12;;;;;;;0.30;0.30;;;;;;;23.40;34.37;99194.06;4755294;30;20056;-88
2022/06/06 09:48:17;;;;;;;0.60;0.60;;;;;;;23.74;34.38;99194.03;4755860;30;20109;-85
2022/06/06 09:51:00;;;;;;;0.60;0.60;;;;;;;24.87;31.65;99192.75;4767582;30;20060;-87
2022/06/06 09:59:52;;;;;;;0.20;0.20;;;;;;;24.54;31.83;99187.13;4765406;30;20052;-87
2022/06/06 10:02:45;;;;;;;0.22;0.22;;;;;;;22.61;35.38;99195.88;4762901;30;20052;-86
2022/06/06 10:05:27;;;;;;;0.40;0.40;;;;;;;22.75;35.44;99191.06;4765174;30;20463;-86
2022/06/06 10:08:16;;;;;;;0.60;0.60;;;;;;;23.91;33.77;99187.66;4760010;30;20059;-86
2022/06/06 10:10:56;;;;;;;0.60;0.60;;;;;;;24.36;32.80;99194.66;4782615;30;20071;-85
2022/06/06 10:13:27;;;;;;;0.60;0.60;;;;;;;24.42;32.84;99174.00;4777920;30;20062;-85
2022/06/06 10:16:22;;;;;;;0.80;0.80;;;;;;;25.23;31.52;99161.00;4775583;29;20507;-86
2022/06/06 10:18:58;;;;;;;0.60;0.60;;;;;;;25.02;31.23;99161.00;4780431;30;20059;-85
2022/06/06 10:21:53;;;;;;;0.60;0.60;;;;;;;24.79;31.67;99166.03;4760143;30;20055;-86
2022/06/06 10:24:33;;;;;;;0.50;0.50;;;;;;;25.64;30.70;99159.31;4772403;30;20052;-85
2022/06/06 10:27:03;;;;;;;0.60;0.60;;;;;;;26.06;30.07;99148.13;4773602;29;20211;-85
2022/06/06 10:30:10;;;;;;;0.60;0.60;;;;;;;26.37;28.75;99153.91;4782957;30;20052;-84
2022/06/06 10:32:58;;;;;;;0.60;0.60;;;;;;;27.44;28.05;99152.75;4768788;30;20056;-87
2022/06/06 10:35:49;;;;;;;0.60;0.60;;;;;;;28.64;25.89;99158.25;4767558;30;20413;-86
2022/06/06 10:38:54;;;;;;;0.20;0.20;;;;;;;27.50;26.71;99154.13;4752665;30;20515;-85
2022/06/06 10:41:58;;;;;;;0.20;0.20;;;;;;;26.07;28.55;99146.97;4772093;29;20132;-86
2022/06/06 10:45:18;;;;;;;0.70;0.70;;;;;;;26.20;29.15;99156.88;4771927;29;20056;-86
2022/06/06 10:48:21;;;;;;;0.60;0.60;;;;;;;26.93;28.13;99150.50;4772502;30;20119;-87
2022/06/06 10:54:33;;;;;;;0.60;0.60;;;;;;;28.68;25.77;99150.78;4773147;30;20436;-86
2022/06/06 10:57:32;;;;;;;0.60;0.60;;;;;;;29.47;25.81;99152.44;4788023;30;20245;-86
2022/06/06 11:00:16;;;;;;;0.20;0.20;;;;;;;28.09;26.35;99147.78;4786451;30;20083;-85
2022/06/06 11:03:06;;;;;;;0.20;0.20;;;;;;;25.57;28.72;99131.41;4782355;29;20523;-84
2022/06/06 11:06:06;;;;;;;0.20;0.20;;;;;;;24.01;30.76;99148.72;4776496;29;20059;-82
2022/06/06 11:08:37;;;;;;;0.20;0.20;;;;;;;22.92;33.01;99155.31;4782010;30;20074;-88
2022/06/06 11:11:20;;;;;;;0.20;0.20;;;;;;;22.67;33.92;99153.34;4777260;29;20503;-86
2022/06/06 11:13:50;;;;;;;0.70;0.70;;;;;;;25.05;31.29;99143.75;4777108;30;20082;-84
2022/06/06 11:16:47;;;;;;;0.60;0.60;;;;;;;27.52;27.95;99143.47;4780657;29;20507;-87
2022/06/06 11:19:38;;;;;;;0.60;0.60;;;;;;;27.77;26.50;99140.56;4784968;30;20686;-87
2022/06/06 11:22:11;;;;;;;0.60;0.60;;;;;;;28.23;25.97;99149.28;4782675;30;20067;-88
2022/06/06 11:25:13;;;;;;;0.50;0.50;;;;;;;29.10;25.25;99142.59;4778072;29;20059;-87
2022/06/06 11:28:05;;;;;;;0.20;0.20;;;;;;;27.29;26.46;99132.16;4790588;30;20102;-88
2022/06/06 11:31:00;;;;;;;0.17;0.17;;;;;;;26.23;28.26;99123.03;4779992;30;20538;-86
2022/06/06 11:33:54;;;;;;;0.50;0.50;;;;;;;27.43;27.03;99127.03;4787110;30;20047;-86
2022/06/06 11:37:03;;;;;;;0.10;0.10;;;;;;;26.26;27.82;99122.31;4791150;30;20063;-86
2022/06/06 11:39:48;;;;;;;0.10;0.10;;;;;;;25.47;29.54;99122.44;4779841;30;20177;-86
2022/06/06 11:42:53;;;;;;;0.20;0.20;;;;;;;24.68;30.46;99124.22;4795718;30;20572;-88
2022/06/06 11:45:35;;;;;;;0.60;0.60;;;;;;;25.98;27.99;99121.38;4788615;30;20051;-87
2022/06/06 11:48:21;;;;;;;0.60;0.60;;;;;;;27.84;25.44;99122.19;4787294;30;20621;-86
2022/06/06 11:50:57;;;;;;;0.20;0.20;;;;;;;28.16;24.56;99110.31;4786681;29;20063;-88
2022/06/06 11:54:20;;;;;;;0.60;0.60;;;;;;;29.90;22.18;99111.53;4780925;30;20062;-88
2022/06/06 11:57:01;;;;;;;0.70;0.70;;;;;;;28.19;23.21;99109.56;4782310;29;20543;-86
2022/06/06 11:59:54;;;;;;;0.30;0.30;;;;;;;26.88;24.22;99117.53;4772940;30;20161;-86
2022/06/06 12:02:49;;;;;;;0.60;0.60;;;;;;;28.25;23.17;99102.56;4796137;29;20056;-87
2022/06/06 12:05:54;;;;;;;0.10;0.10;;;;;;;26.88;24.37;99103.66;4787547;29;20108;-86
2022/06/06 12:08:39;;;;;;;0.57;0.57;;;;;;;28.18;23.86;99107.94;4787428;29;20059;-85
2022/06/06 12:11:35;;;;;;;0.57;0.57;;;;;;;29.47;22.33;99099.63;4777225;30;20531;-86
2022/06/06 12:14:24;;;;;;;0.50;0.50;;;;;;;30.04;21.77;99092.31;4789425;30;20055;-86
2022/06/06 12:17:07;;;;;;;0.50;0.50;;;;;;;30.75;21.22;99086.22;4783681;30;20066;-86
2022/06/06 12:20:02;;;;;;;0.50;0.50;;;;;;;30.46;21.29;99085.81;4767337;30;20076;-86
2022/06/06 12:22:41;;;;;;;0.50;0.50;;;;;;;30.47;21.55;99093.00;4774260;30;20063;-87
2022/06/06 12:25:34;;;;;;;0.45;0.45;;;;;;;30.71;21.77;99090.91;4799831;29;20151;-87
2022/06/06 12:28:26;;;;;;;0.40;0.40;;;;;;;31.00;21.30;99092.94;4782993;30;20055;-85
2022/06/06 12:31:24;;;;;;;0.50;0.50;;;;;;;31.17;20.95;99082.34;4789260;29;20069;-86
2022/06/06 12:34:01;;;;;;;0.50;0.50;;;;;;;30.93;21.13;99090.06;4789068;30;20055;-85
2022/06/06 12:36:35;;;;;;;0.10;0.10;;;;;;;28.87;22.90;99086.94;4787162;30;20106;-84
2022/06/06 12:39:05;;;;;;;0.55;0.55;;;;;;;29.14;22.78;99093.47;4781955;29;20143;-86
2022/06/06 12:41:48;;;;;;;0.50;0.50;;;;;;;30.56;21.56;99093.53;4777395;29;20089;-85
2022/06/06 12:45:03;;;;;;;0.50;0.50;;;;;;;31.51;20.50;99089.53;4774289;30;20060;-85
2022/06/06 12:47:44;;;;;;;0.50;0.50;;;;;;;31.84;20.16;99087.03;4791191;29;20065;-87
2022/06/06 12:50:19;;;;;;;0.50;0.50;;;;;;;31.60;20.07;99088.41;4800250;29;20059;-86
2022/06/06 12:53:20;;;;;;;0.45;0.45;;;;;;;31.99;19.83;99076.84;4794267;30;20142;-84
2022/06/06 12:58:46;;;;;;;0.40;0.40;;;;;;;32.38;18.36;99082.69;4451962;29;10000205;-85
2022/06/06 13:01:37;;;;;;;0.40;0.40;;;;;;;33.31;18.18;99085.16;4771884;29;20052;-84
2022/06/06 13:04:25;;;;;;;0.40;0.40;;;;;;;33.80;17.72;99075.25;4764253;30;21000;-85
2022/06/06 13:07:09;;;;;;;0.50;0.50;;;;;;;34.08;17.58;99074.47;4764966;30;20064;-85
2022/06/06 13:10:18;;;;;;;0.40;0.40;;;;;;;34.85;17.59;99074.69;4779504;30;20102;-85
2022/06/06 13:13:04;;;;;;;0.20;0.20;;;;;;;32.20;19.02;99076.19;4776639;30;20550;-88
2022/06/06 13:15:40;;;;;;;0.30;0.30;;;;;;;30.92;20.20;99070.91;4775641;29;20056;-87